createdAt,value
2019-04-29T07:28:43.912Z,6.03
2019-04-29T07:31:11.729Z,5.37
2019-04-29T07:33:40.002Z,6.80
2019-04-29T07:36:11.205Z,6.90
2019-04-29T07:38:41.679Z,6.07
2019-04-29T07:41:09.979Z,6.10
2019-04-29T07:43:38.635Z,4.90
2019-04-29T07:46:26.667Z,5.57
2019-04-29T07:49:01.247Z,4.70
2019-04-29T07:51:24.054Z,5.23
2019-04-29T07:53:52.326Z,4.97
2019-04-29T07:56:20.192Z,4.93
2019-04-29T07:58:48.601Z,5.03
2019-04-29T08:01:19.847Z,4.80
2019-04-29T08:03:46.602Z,4.73
2019-04-29T08:06:15.129Z,5.03
2019-04-29T08:08:54.355Z,5.10
2019-04-29T08:11:12.836Z,4.70
2019-04-29T08:13:43.132Z,4.77
2019-04-29T08:16:12.768Z,4.53
2019-04-29T08:18:40.663Z,4.67
2019-04-29T08:21:10.183Z,4.77
2019-04-29T08:23:42.268Z,4.30
2019-04-29T08:26:09.469Z,5.40
2019-04-29T08:28:37.422Z,4.60
2019-04-29T08:31:05.137Z,4.80
2019-04-29T08:33:33.405Z,4.60
2019-04-29T08:36:01.217Z,4.83
2019-04-29T08:38:29.015Z,4.73
2019-04-29T08:40:58.949Z,5.00
2019-04-29T08:43:45.276Z,4.53
2019-04-29T08:46:16.872Z,4.87
2019-04-29T08:48:46.007Z,4.50
2019-04-29T08:51:13.822Z,4.50
2019-04-29T08:53:42.259Z,4.30
2019-04-29T08:56:11.845Z,4.40
2019-04-29T08:58:44.357Z,4.10
2019-04-29T09:01:09.975Z,5.10
2019-04-29T09:03:40.623Z,4.90
2019-04-29T09:06:08.391Z,5.20
2019-04-29T09:08:36.188Z,4.90
2019-04-29T09:11:08.089Z,4.90
2019-04-29T09:13:33.925Z,5.20
2019-04-29T09:16:01.738Z,4.53
2019-04-29T09:18:30.103Z,5.23
2019-04-29T09:20:57.808Z,5.10
2019-04-29T09:23:28.455Z,4.93
2019-04-29T09:26:18.343Z,5.27
2019-04-29T09:28:49.440Z,5.50
2019-04-29T09:31:16.573Z,5.57
2019-04-29T09:33:49.288Z,5.53
2019-04-29T09:36:15.072Z,5.20
2019-04-29T09:38:43.253Z,5.13
2019-04-29T09:41:42.350Z,4.90
2019-04-29T09:44:21.806Z,4.93
2019-04-29T09:46:49.496Z,4.43
2019-04-29T09:49:17.243Z,4.50
2019-04-29T09:51:44.943Z,5.17
2019-04-29T09:54:14.513Z,4.93
2019-04-29T09:56:42.480Z,5.17
2019-04-29T09:59:28.682Z,5.23
2019-04-29T10:02:31.327Z,5.83
2019-04-29T10:05:17.005Z,6.23
2019-04-29T10:07:45.521Z,6.27
2019-04-29T10:10:13.595Z,6.60
2019-04-29T10:12:41.500Z,6.17
2019-04-29T10:15:11.157Z,6.07
2019-04-29T10:18:04.800Z,6.30
2019-04-29T10:20:48.644Z,6.30
2019-04-29T10:23:16.368Z,6.00
2019-04-29T10:25:44.264Z,6.77
2019-04-29T10:28:12.359Z,8.40
2019-04-29T10:30:40.589Z,9.50
2019-04-29T10:33:12.852Z,14.07
2019-04-29T10:35:40.761Z,14.87
2019-04-29T10:38:08.637Z,16.50
2019-04-29T10:41:04.969Z,16.63
2019-04-29T10:43:53.560Z,16.03
2019-04-29T10:46:54.111Z,16.13
2019-04-29T10:49:39.238Z,15.00
2019-04-29T10:52:07.187Z,17.73
2019-04-29T10:54:35.330Z,15.57
2019-04-29T10:57:03.403Z,17.60
2019-04-29T10:59:36.016Z,17.37
2019-04-29T11:02:51.575Z,19.23
2019-04-29T11:05:37.756Z,19.57
2019-04-29T11:08:13.256Z,20.27
2019-04-29T11:10:40.987Z,22.10
2019-04-29T11:13:08.760Z,22.03
2019-04-29T11:15:39.157Z,22.80
2019-04-29T11:18:07.265Z,21.70
2019-04-29T11:20:35.579Z,21.30
2019-04-29T11:23:16.683Z,20.73
2019-04-29T11:26:09.653Z,22.60
2019-04-29T11:28:38.493Z,21.37
2019-04-29T11:31:09.717Z,21.90
2019-04-29T11:33:49.013Z,23.33
2019-04-29T11:36:18.249Z,21.03
2019-04-29T11:38:46.006Z,21.43
2019-04-29T11:41:19.833Z,23.23
2019-04-29T11:43:46.660Z,22.80
2019-04-29T11:46:15.569Z,22.23
2019-04-29T11:48:43.782Z,23.03
2019-04-29T11:52:05.351Z,23.80
2019-04-29T11:54:17.954Z,25.13
2019-04-29T11:56:43.296Z,25.43
2019-04-29T11:59:40.991Z,26.20
2019-04-29T12:02:45.245Z,27.30
2019-04-29T12:05:21.586Z,27.17
2019-04-29T12:07:49.370Z,28.30
2019-04-29T12:10:17.290Z,26.97
2019-04-29T12:12:47.774Z,27.33
2019-04-29T12:15:31.060Z,27.27
2019-04-29T12:18:34.026Z,27.10
2019-04-29T12:21:14.032Z,26.83
2019-04-29T12:23:42.053Z,26.37
2019-04-29T12:26:10.090Z,24.47
2019-04-29T12:28:42.624Z,28.57
2019-04-29T12:31:18.917Z,28.43
2019-04-29T12:33:52.984Z,27.67
2019-04-29T12:36:20.953Z,28.97
2019-04-29T12:39:21.618Z,30.10
2019-04-29T12:42:07.009Z,30.20
2019-04-29T12:44:59.158Z,29.40
2019-04-29T12:47:30.121Z,28.53
2019-04-29T12:49:58.011Z,27.67
2019-04-29T12:52:25.826Z,27.40
2019-04-29T12:54:53.581Z,27.33
2019-04-29T12:57:23.559Z,27.40
2019-04-29T12:59:54.371Z,27.50
2019-04-29T13:02:40.072Z,27.03
2019-04-29T13:05:30.495Z,27.27
2019-04-29T13:08:26.576Z,27.87
2019-04-29T13:10:57.327Z,27.20
2019-04-29T13:13:25.172Z,26.90
2019-04-29T13:16:22.087Z,26.33
2019-04-29T13:19:12.344Z,26.77
2019-04-29T13:21:34.355Z,26.30
2019-04-29T13:24:13.414Z,26.27
2019-04-29T13:26:33.323Z,25.73
2019-04-29T13:29:02.398Z,26.53
2019-04-29T13:31:37.967Z,25.90
2019-04-29T13:34:14.676Z,26.47
2019-04-29T13:36:31.668Z,26.77
2019-04-29T13:39:00.245Z,26.07
2019-04-29T13:41:28.119Z,26.57
2019-04-29T13:44:04.100Z,27.93
2019-04-29T13:46:51.511Z,26.67
2019-04-29T13:49:34.431Z,26.90
2019-04-29T13:52:02.598Z,27.80
2019-04-29T13:54:30.447Z,28.37
2019-04-29T13:57:07.708Z,28.83
2019-04-29T13:59:41.709Z,37.93
2019-04-29T14:02:32.232Z,32.43
2019-04-29T14:05:02.209Z,31.77
2019-04-29T14:07:30.387Z,32.27
2019-04-29T14:09:58.177Z,30.23
2019-04-29T14:12:47.987Z,29.60
2019-04-29T14:14:58.615Z,30.37
2019-04-29T14:17:27.031Z,29.73
2019-04-29T14:19:57.020Z,28.83
2019-04-29T14:22:26.693Z,29.80
2019-04-29T14:24:54.581Z,29.80
2019-04-29T14:27:25.291Z,29.97
2019-04-29T14:29:52.323Z,30.50
2019-04-29T14:32:33.362Z,29.73
2019-04-29T14:35:11.956Z,30.57
2019-04-29T14:37:54.071Z,33.83
2019-04-29T14:40:10.857Z,33.80
2019-04-29T14:42:57.568Z,34.10
2019-04-29T14:45:47.677Z,33.67
2019-04-29T14:48:21.964Z,32.97
2019-04-29T14:50:54.051Z,33.10
2019-04-29T14:53:24.207Z,33.90
2019-04-29T14:55:49.441Z,32.67
2019-04-29T14:58:18.082Z,32.87
2019-04-29T15:01:05.959Z,33.10
2019-04-29T15:03:51.451Z,32.53
2019-04-29T15:06:19.528Z,33.63
2019-04-29T15:08:47.302Z,33.83
2019-04-29T15:11:15.439Z,34.03
2019-04-29T15:13:47.175Z,33.83
2019-04-29T15:16:23.103Z,32.10
2019-04-29T15:19:08.889Z,32.77
2019-04-29T15:21:49.613Z,31.03
2019-04-29T15:24:17.747Z,31.83
2019-04-29T15:26:45.656Z,29.27
2019-04-29T15:29:14.622Z,30.57
2019-04-29T15:31:46.926Z,29.33
2019-04-29T15:34:14.501Z,31.03
2019-04-29T15:36:42.028Z,30.30
2019-04-29T15:39:11.795Z,32.53
2019-04-29T15:41:40.815Z,31.13
2019-04-29T15:44:18.932Z,31.30
2019-04-29T15:46:46.222Z,32.57
2019-04-29T15:49:09.433Z,30.73
2019-04-29T15:51:37.236Z,30.67
2019-04-29T15:54:09.234Z,31.13
2019-04-29T15:56:38.992Z,30.67
2019-04-29T15:59:08.870Z,27.80
2019-04-29T16:01:34.387Z,29.27
2019-04-29T16:04:05.136Z,29.30
2019-04-29T16:06:55.148Z,28.83
2019-04-29T16:09:50.797Z,28.47
2019-04-29T16:12:14.511Z,29.43
2019-04-29T16:14:40.982Z,29.97
2019-04-29T16:17:09.709Z,30.20
2019-04-29T16:19:37.499Z,25.50
2019-04-29T16:22:06.100Z,23.47
2019-04-29T16:24:38.533Z,22.87
2019-04-29T16:27:08.672Z,21.83
2019-04-29T16:29:33.374Z,22.80
2019-04-29T16:32:04.881Z,22.83
2019-04-29T16:34:30.975Z,21.53
2019-04-29T16:37:00.959Z,21.80
2019-04-29T16:39:29.062Z,22.63
2019-04-29T16:42:11.750Z,22.40
2019-04-29T16:44:39.934Z,22.40
2019-04-29T16:47:13.220Z,23.70
2019-04-29T16:49:40.551Z,24.23
2019-04-29T16:52:09.195Z,24.63
2019-04-29T16:54:37.079Z,24.20
2019-04-29T16:57:06.008Z,24.90
2019-04-29T16:59:33.951Z,24.43
2019-04-29T17:02:01.859Z,26.23
2019-04-29T17:04:29.693Z,26.27
2019-04-29T17:07:11.674Z,25.83
2019-04-29T17:09:46.764Z,28.70
2019-04-29T17:12:15.262Z,28.07
2019-04-29T17:15:03.052Z,29.07
2019-04-29T17:17:17.265Z,29.50
2019-04-29T17:19:45.108Z,29.13
2019-04-29T17:22:25.476Z,31.47
2019-04-29T17:24:43.728Z,30.33
2019-04-29T17:27:42.068Z,31.47
2019-04-29T17:30:30.287Z,29.87
2019-04-29T17:33:05.882Z,30.20
2019-04-29T17:35:35.328Z,27.77
2019-04-29T17:38:03.262Z,26.20
2019-04-29T17:40:31.407Z,27.33
2019-04-29T17:43:21.414Z,27.90
2019-04-29T17:46:11.655Z,26.97
2019-04-29T17:49:14.128Z,27.47
2019-04-29T17:51:42.751Z,25.53
2019-04-29T17:54:12.964Z,24.47
2019-04-29T17:57:25.676Z,23.60
2019-04-29T18:00:08.299Z,23.93
2019-04-29T18:03:11.557Z,23.90
2019-04-29T18:06:07.896Z,22.80
2019-04-29T18:08:40.648Z,23.00
2019-04-29T18:11:08.510Z,23.23
2019-04-29T18:13:36.239Z,24.73
2019-04-29T18:16:17.580Z,25.50
2019-04-29T18:18:57.274Z,26.87
2019-04-29T18:21:37.279Z,27.87
2019-04-29T18:24:34.126Z,30.03
2019-04-29T18:27:03.572Z,30.53
2019-04-29T18:29:36.287Z,28.40
2019-04-29T18:32:05.200Z,29.73
2019-04-29T18:34:33.804Z,30.00
2019-04-29T18:37:01.626Z,31.03
2019-04-29T18:39:31.659Z,31.63
2019-04-29T18:42:03.234Z,32.63
2019-04-29T18:44:30.196Z,33.50
2019-04-29T18:46:58.412Z,33.63
2019-04-29T18:49:26.255Z,35.00
2019-04-29T18:51:54.060Z,34.87
2019-04-29T18:54:21.894Z,34.37
2019-04-29T18:56:49.784Z,32.93
2019-04-29T18:59:21.259Z,34.87
2019-04-29T19:01:48.168Z,33.83
2019-04-29T19:04:28.374Z,32.47
2019-04-29T19:07:02.085Z,29.60
2019-04-29T19:09:32.329Z,31.97
2019-04-29T19:11:57.835Z,30.50
2019-04-29T19:14:28.268Z,30.23
2019-04-29T19:17:00.104Z,28.43
2019-04-29T19:19:26.431Z,31.07
2019-04-29T19:21:55.870Z,29.80
2019-04-29T19:24:23.871Z,30.37
2019-04-29T19:26:53.942Z,28.63
2019-04-29T19:29:23.634Z,30.47
2019-04-29T19:31:51.611Z,30.20
2019-04-29T19:34:19.430Z,29.97
2019-04-29T19:36:50.662Z,29.37
2019-04-29T19:39:21.628Z,28.60
2019-04-29T19:41:50.382Z,28.80
2019-04-29T19:44:18.063Z,32.50
2019-04-29T19:46:45.860Z,31.97
2019-04-29T19:49:15.781Z,32.63
2019-04-29T19:51:47.216Z,32.53
2019-04-29T19:54:16.983Z,32.67
2019-04-29T19:56:43.004Z,33.70
2019-04-29T19:59:13.699Z,33.70
2019-04-29T20:01:41.026Z,33.67
2019-04-29T20:04:31.705Z,33.47
2019-04-29T20:07:05.825Z,31.53
2019-04-29T20:09:31.108Z,31.13
2019-04-29T20:12:00.200Z,30.70
2019-04-29T20:14:33.226Z,31.17
2019-04-29T20:17:17.949Z,30.63
2019-04-29T20:19:58.700Z,30.37
2019-04-29T20:22:21.345Z,29.47
2019-04-29T20:24:50.790Z,29.93
2019-04-29T20:27:20.440Z,28.83
2019-04-29T20:29:48.924Z,30.33
2019-04-29T20:32:17.404Z,29.23
2019-04-29T20:34:46.141Z,29.50
2019-04-29T20:37:16.177Z,30.83
2019-04-29T20:39:45.634Z,30.37
2019-04-29T20:42:15.664Z,30.97
2019-04-29T20:44:47.618Z,31.13
2019-04-29T20:47:21.943Z,30.50
2019-04-29T20:49:43.007Z,31.53
2019-04-29T20:52:36.579Z,30.30
2019-04-29T20:55:07.371Z,29.90
2019-04-29T20:57:35.913Z,29.33
2019-04-29T21:00:06.740Z,29.20
2019-04-29T21:02:37.326Z,28.47
2019-04-29T21:05:06.518Z,29.00
2019-04-29T21:07:34.963Z,28.67
2019-04-29T21:10:08.182Z,29.47
2019-04-29T21:13:08.762Z,28.03
2019-04-29T21:15:40.054Z,26.87
2019-04-29T21:18:10.319Z,27.17
2019-04-29T21:20:37.583Z,27.37
2019-04-29T21:23:05.541Z,26.67
2019-04-29T21:25:33.434Z,27.80
2019-04-29T21:28:02.337Z,28.60
2019-04-29T21:30:35.455Z,27.63
2019-04-29T21:33:00.307Z,28.07
2019-04-29T21:35:59.852Z,27.40
2019-04-29T21:38:55.742Z,29.23
2019-04-29T21:41:32.953Z,29.67
2019-04-29T21:44:01.031Z,30.83
2019-04-29T21:46:29.642Z,32.20
2019-04-29T21:48:57.581Z,33.73
2019-04-29T21:51:25.649Z,34.30
2019-04-29T21:53:53.400Z,34.20
2019-04-29T21:56:21.177Z,34.63
2019-04-29T21:58:48.993Z,35.53
2019-04-29T22:01:17.480Z,34.47
2019-04-29T22:03:45.300Z,36.57
2019-04-29T22:06:13.076Z,36.30
2019-04-29T22:08:40.880Z,36.93
2019-04-29T22:11:08.856Z,35.63
2019-04-29T22:13:39.060Z,36.17
2019-04-29T22:16:06.867Z,36.33
2019-04-29T22:18:35.588Z,36.60
2019-04-29T22:21:06.573Z,34.40
2019-04-29T22:23:35.172Z,34.63
2019-04-29T22:26:04.935Z,35.77
2019-04-29T22:28:32.559Z,37.17
2019-04-29T22:31:00.437Z,36.83
2019-04-29T22:33:29.775Z,36.33
2019-04-29T22:35:57.994Z,36.57
2019-04-29T22:38:25.783Z,38.17
2019-04-29T22:40:55.169Z,38.37
2019-04-29T22:43:45.829Z,38.20
2019-04-29T22:46:17.233Z,37.80
2019-04-29T22:48:45.446Z,38.03
2019-04-29T22:51:15.162Z,39.07
2019-04-29T22:53:44.834Z,37.70
2019-04-29T22:56:14.231Z,38.47
2019-04-29T22:58:43.828Z,39.23
2019-04-29T23:01:11.932Z,39.90
2019-04-29T23:03:40.747Z,38.40
2019-04-29T23:06:09.232Z,38.33
2019-04-29T23:08:38.167Z,36.97
2019-04-29T23:11:06.343Z,39.07
2019-04-29T23:13:35.497Z,40.53
2019-04-29T23:16:04.751Z,38.53
2019-04-29T23:18:40.966Z,40.00
2019-04-29T23:21:16.267Z,39.40
2019-04-29T23:23:47.025Z,39.90
2019-04-29T23:26:16.849Z,39.27
2019-04-29T23:28:45.764Z,40.83
2019-04-29T23:31:13.878Z,40.87
2019-04-29T23:33:41.628Z,40.23
2019-04-29T23:36:13.643Z,39.90
2019-04-29T23:38:42.753Z,40.80
2019-04-29T23:41:09.648Z,40.67
2019-04-29T23:43:37.472Z,41.63
2019-04-29T23:46:07.876Z,41.93
2019-04-29T23:48:39.545Z,41.03
2019-04-29T23:51:05.553Z,42.73
2019-04-29T23:53:35.127Z,41.17
2019-04-29T23:56:05.681Z,43.53
2019-04-29T23:58:46.785Z,40.17
